createdAt,value
2024-03-08T00:02:16.756Z,-1.15
2024-03-08T00:04:43.695Z,-1.07
2024-03-08T00:07:10.376Z,-0.99
2024-03-08T00:09:37.624Z,-0.93
2024-03-08T00:12:04.518Z,-0.93
2024-03-08T00:14:31.291Z,-0.94
2024-03-08T00:16:58.012Z,-0.96
2024-03-08T00:19:24.732Z,-1.03
2024-03-08T00:21:51.426Z,-1.08
2024-03-08T00:24:18.149Z,-1.07
2024-03-08T00:26:44.901Z,-1.06
2024-03-08T00:29:11.657Z,-1.11
2024-03-08T00:31:38.364Z,-1.03
2024-03-08T00:34:05.130Z,-1.05
2024-03-08T00:36:31.812Z,-1.08
2024-03-08T00:38:58.574Z,-1.15
2024-03-08T00:41:27.708Z,-1.18
2024-03-08T00:43:54.475Z,-1.29
2024-03-08T00:46:21.233Z,-1.54
2024-03-08T00:48:48.614Z,-1.43
2024-03-08T00:51:16.566Z,-1.48
2024-03-08T00:53:44.426Z,-1.49
2024-03-08T00:56:14.313Z,-1.47
2024-03-08T00:58:41.375Z,-1.38
2024-03-08T01:01:08.159Z,-1.30
2024-03-08T01:03:35.562Z,-1.23
2024-03-08T01:06:02.587Z,-1.17
2024-03-08T01:08:29.502Z,-1.17
2024-03-08T01:10:56.275Z,-1.14
2024-03-08T01:13:23.005Z,-1.13
2024-03-08T01:15:49.674Z,-1.08
2024-03-08T01:18:16.442Z,-1.03
2024-03-08T01:20:43.189Z,-1.07
2024-03-08T01:23:10.175Z,-1.16
2024-03-08T01:25:36.862Z,-1.29
2024-03-08T01:28:03.765Z,-1.28
2024-03-08T01:30:30.537Z,-1.29
2024-03-08T01:32:57.255Z,-1.23
2024-03-08T01:35:24.117Z,-1.18
2024-03-08T01:37:50.845Z,-1.20
2024-03-08T01:40:18.031Z,-1.52
2024-03-08T01:42:46.104Z,-1.45
2024-03-08T01:45:13.030Z,-1.39
2024-03-08T01:47:40.091Z,-1.46
2024-03-08T01:50:07.589Z,-1.45
2024-03-08T01:52:35.591Z,-1.45
2024-03-08T01:55:03.795Z,-1.53
2024-03-08T01:57:32.602Z,-1.57
2024-03-08T01:59:59.355Z,-1.57
2024-03-08T02:02:26.545Z,-1.53
2024-03-08T02:04:54.390Z,-1.60
2024-03-08T02:07:21.194Z,-1.88
2024-03-08T02:09:47.911Z,-1.84
2024-03-08T02:12:15.095Z,-1.75
2024-03-08T02:14:42.038Z,-1.64
2024-03-08T02:17:08.967Z,-1.52
2024-03-08T02:19:37.539Z,-1.51
2024-03-08T02:22:05.663Z,-1.52
2024-03-08T02:24:33.678Z,-1.55
2024-03-08T02:27:00.595Z,-1.53
2024-03-08T02:29:27.394Z,-1.54
2024-03-08T02:31:54.136Z,-1.49
2024-03-08T02:34:21.349Z,-1.46
2024-03-08T02:36:48.188Z,-1.50
2024-03-08T02:39:15.143Z,-1.47
2024-03-08T02:41:41.939Z,-1.46
2024-03-08T02:44:08.687Z,-1.47
2024-03-08T02:46:37.041Z,-1.71
2024-03-08T02:49:03.845Z,-2.25
2024-03-08T02:51:32.049Z,-2.29
2024-03-08T02:53:58.838Z,-2.20
2024-03-08T02:56:25.608Z,-2.16
2024-03-08T02:58:52.280Z,-1.98
2024-03-08T03:01:21.615Z,-1.77
2024-03-08T03:03:48.435Z,-1.95
2024-03-08T03:06:15.177Z,-2.07
2024-03-08T03:08:44.024Z,-2.21
2024-03-08T03:11:10.762Z,-2.11
2024-03-08T03:13:37.443Z,-2.01
2024-03-08T03:16:04.721Z,-1.89
2024-03-08T03:18:31.587Z,-1.73
2024-03-08T03:20:58.304Z,-1.60
2024-03-08T03:23:27.168Z,-1.45
2024-03-08T03:25:53.827Z,-1.45
2024-03-08T03:28:22.947Z,-1.48
2024-03-08T03:30:49.707Z,-1.67
2024-03-08T03:33:17.941Z,-1.60
2024-03-08T03:35:45.368Z,-1.51
2024-03-08T03:38:12.381Z,-1.47
2024-03-08T03:40:41.478Z,-1.40
2024-03-08T03:43:09.165Z,-1.36
2024-03-08T03:45:37.460Z,-1.37
2024-03-08T03:48:08.128Z,-1.36
2024-03-08T03:50:36.520Z,-1.31
2024-03-08T03:53:04.746Z,-1.30
2024-03-08T03:55:31.325Z,-1.35
2024-03-08T03:58:00.257Z,-1.39
2024-03-08T04:00:28.452Z,-1.34
2024-03-08T04:02:56.235Z,-1.38
2024-03-08T04:05:23.029Z,-1.47
2024-03-08T04:07:49.731Z,-1.44
2024-03-08T04:10:16.488Z,-1.32
2024-03-08T04:12:43.442Z,-1.18
2024-03-08T04:15:12.500Z,-1.03
2024-03-08T04:17:39.897Z,-0.95
2024-03-08T04:20:11.530Z,-1.02
2024-03-08T04:22:39.093Z,-0.99
2024-03-08T04:25:06.980Z,-1.11
2024-03-08T04:27:34.416Z,-1.22
2024-03-08T04:30:02.163Z,-1.14
2024-03-08T04:32:31.449Z,-1.12
2024-03-08T04:34:58.550Z,-1.03
2024-03-08T04:37:26.331Z,-1.02
2024-03-08T04:39:53.467Z,-0.97
2024-03-08T04:42:20.308Z,-0.92
2024-03-08T04:44:47.148Z,-0.85
2024-03-08T04:47:14.043Z,-0.80
2024-03-08T04:49:40.758Z,-0.73
2024-03-08T04:52:08.302Z,-0.64
2024-03-08T04:54:35.690Z,-0.62
2024-03-08T04:57:05.262Z,-0.81
2024-03-08T04:59:33.910Z,-0.80
2024-03-08T05:02:00.898Z,-0.79
2024-03-08T05:04:27.707Z,-0.91
2024-03-08T05:06:54.911Z,-1.10
2024-03-08T05:09:22.195Z,-1.19
2024-03-08T05:11:49.177Z,-1.09
2024-03-08T05:14:21.395Z,-0.95
2024-03-08T05:16:51.458Z,-1.11
2024-03-08T05:19:19.600Z,-1.24
2024-03-08T05:21:50.394Z,-1.17
2024-03-08T05:24:18.325Z,-1.28
2024-03-08T05:26:46.216Z,-1.38
2024-03-08T05:29:13.940Z,-1.28
2024-03-08T05:31:50.445Z,-1.37
2024-03-08T05:34:23.620Z,-1.33
2024-03-08T05:36:51.752Z,-1.21
2024-03-08T05:39:20.951Z,-1.21
2024-03-08T05:41:48.832Z,-1.33
2024-03-08T05:44:15.932Z,-1.14
2024-03-08T05:46:42.657Z,-1.11
2024-03-08T05:49:11.947Z,-1.04
2024-03-08T05:51:43.169Z,-1.11
2024-03-08T05:54:12.245Z,-1.09
2024-03-08T05:56:43.598Z,-1.08
2024-03-08T05:59:11.030Z,-0.97
2024-03-08T06:01:37.876Z,-0.88
2024-03-08T06:04:05.269Z,-0.68
2024-03-08T06:06:32.201Z,-0.62
2024-03-08T06:09:00.079Z,-0.53
2024-03-08T06:11:31.875Z,-0.34
2024-03-08T06:14:01.476Z,-0.24
2024-03-08T06:16:31.547Z,-0.06
2024-03-08T06:18:58.715Z,0.11
2024-03-08T06:21:27.402Z,0.12
2024-03-08T06:23:59.103Z,0.12
2024-03-08T06:26:29.867Z,0.25
2024-03-08T06:28:57.893Z,0.29
2024-03-08T06:31:24.966Z,0.29
2024-03-08T06:33:52.041Z,0.37
2024-03-08T06:36:22.863Z,0.37
2024-03-08T06:38:50.672Z,0.28
2024-03-08T06:41:17.756Z,0.29
2024-03-08T06:43:45.332Z,0.24
2024-03-08T06:46:13.941Z,0.20
2024-03-08T06:48:41.176Z,0.25
2024-03-08T06:51:08.505Z,0.29
2024-03-08T06:53:39.944Z,0.34
2024-03-08T06:56:08.427Z,0.33
2024-03-08T06:58:35.156Z,0.34
2024-03-08T07:01:05.457Z,0.51
2024-03-08T07:03:33.776Z,0.56
2024-03-08T07:06:02.939Z,0.84
2024-03-08T07:08:29.804Z,0.99
2024-03-08T07:10:56.786Z,1.15
2024-03-08T07:13:23.543Z,1.22
2024-03-08T07:15:50.237Z,1.29
2024-03-08T07:18:17.145Z,1.36
2024-03-08T07:20:45.127Z,1.49
2024-03-08T07:23:12.081Z,1.63
2024-03-08T07:25:40.706Z,1.55
2024-03-08T07:28:10.841Z,1.69
2024-03-08T07:30:45.833Z,1.87
2024-03-08T07:33:13.960Z,1.92
2024-03-08T07:35:41.863Z,1.83
2024-03-08T07:38:11.290Z,1.93
2024-03-08T07:40:45.630Z,1.97
2024-03-08T07:43:12.869Z,1.93
2024-03-08T07:45:40.125Z,1.89
2024-03-08T07:48:14.481Z,1.95
2024-03-08T07:50:42.361Z,1.94
2024-03-08T07:53:09.608Z,2.08
2024-03-08T07:55:37.399Z,2.01
2024-03-08T07:58:04.731Z,2.34
2024-03-08T08:00:32.912Z,3.33
2024-03-08T08:03:00.133Z,3.88
2024-03-08T08:05:27.645Z,3.97
2024-03-08T08:07:54.957Z,4.29
2024-03-08T08:10:26.617Z,3.85
2024-03-08T08:12:53.955Z,4.14
2024-03-08T08:15:21.430Z,4.89
2024-03-08T08:17:48.900Z,5.43
2024-03-08T08:20:16.441Z,5.15
2024-03-08T08:22:46.414Z,5.54
2024-03-08T08:25:16.825Z,6.05
2024-03-08T08:27:43.880Z,6.52
2024-03-08T08:30:12.519Z,6.52
2024-03-08T08:32:50.023Z,6.25
2024-03-08T08:35:17.432Z,6.46
2024-03-08T08:37:45.393Z,6.31
2024-03-08T08:40:16.404Z,6.32
2024-03-08T08:42:43.975Z,6.88
2024-03-08T08:45:16.108Z,6.88
2024-03-08T08:47:46.760Z,7.13
2024-03-08T08:50:14.186Z,7.37
2024-03-08T08:52:41.573Z,7.63
2024-03-08T08:55:08.941Z,7.94
2024-03-08T08:57:36.499Z,7.66
2024-03-08T09:00:08.521Z,7.79
2024-03-08T09:02:35.905Z,7.58
2024-03-08T09:05:03.340Z,7.13
2024-03-08T09:07:30.896Z,7.28
2024-03-08T09:09:59.863Z,7.55
2024-03-08T09:12:27.357Z,7.22
2024-03-08T09:14:54.139Z,7.40
2024-03-08T09:17:23.771Z,7.06
2024-03-08T09:19:51.582Z,6.77
2024-03-08T09:22:19.674Z,7.19
2024-03-08T09:24:47.042Z,7.47
2024-03-08T09:27:15.014Z,7.64
2024-03-08T09:29:41.775Z,7.67
2024-03-08T09:32:08.792Z,8.32
2024-03-08T09:34:38.061Z,8.32
2024-03-08T09:37:05.812Z,8.59
2024-03-08T09:39:34.782Z,8.68
2024-03-08T09:42:03.103Z,8.57
2024-03-08T09:44:32.964Z,8.63
2024-03-08T09:47:00.949Z,8.83
2024-03-08T09:49:27.885Z,8.98
2024-03-08T09:51:54.995Z,8.76
2024-03-08T09:54:25.980Z,9.11
2024-03-08T09:56:53.434Z,9.93
2024-03-08T09:59:29.372Z,10.54
2024-03-08T10:02:00.968Z,10.70
2024-03-08T10:04:29.877Z,10.80
2024-03-08T10:06:58.143Z,11.05
2024-03-08T10:09:26.382Z,10.89
2024-03-08T10:11:57.232Z,10.76
2024-03-08T10:14:23.997Z,10.89
2024-03-08T10:16:50.726Z,11.14
2024-03-08T10:19:18.209Z,11.18
2024-03-08T10:21:53.263Z,11.64
2024-03-08T10:24:20.062Z,12.33
2024-03-08T10:26:47.160Z,12.53
2024-03-08T10:29:16.863Z,13.04
2024-03-08T10:31:46.704Z,12.79
2024-03-08T10:34:13.784Z,12.89
2024-03-08T10:36:42.243Z,12.59
2024-03-08T10:39:25.500Z,12.12
2024-03-08T10:42:01.528Z,12.25
2024-03-08T10:44:28.233Z,12.43
2024-03-08T10:47:20.478Z,12.50
2024-03-08T10:50:05.576Z,12.51
2024-03-08T10:52:33.315Z,12.91
2024-03-08T10:55:00.761Z,12.91
2024-03-08T10:57:28.710Z,13.26
2024-03-08T10:59:59.242Z,12.82
2024-03-08T11:02:28.619Z,12.93
2024-03-08T11:04:57.996Z,13.10
2024-03-08T11:07:28.667Z,13.60
2024-03-08T11:09:57.574Z,13.30
2024-03-08T11:12:31.059Z,12.73
2024-03-08T11:15:02.408Z,12.78
2024-03-08T11:17:29.228Z,12.84
2024-03-08T11:20:06.578Z,13.34
2024-03-08T11:22:34.955Z,14.01
2024-03-08T11:25:11.408Z,13.64
2024-03-08T11:27:38.727Z,13.70
2024-03-08T11:30:16.187Z,13.54
2024-03-08T11:32:49.185Z,13.78
2024-03-08T11:35:21.735Z,13.58
2024-03-08T11:37:49.417Z,12.83
2024-03-08T11:40:17.651Z,13.00
2024-03-08T11:42:49.184Z,12.67
2024-03-08T11:45:18.827Z,12.55
2024-03-08T11:47:50.762Z,12.61
2024-03-08T11:50:20.482Z,12.64
2024-03-08T11:52:47.834Z,12.78
2024-03-08T11:55:15.106Z,13.01
2024-03-08T11:57:43.448Z,13.43
2024-03-08T12:00:27.057Z,13.97
2024-03-08T12:03:11.822Z,13.57
2024-03-08T12:05:39.344Z,13.40
2024-03-08T12:08:08.420Z,13.55
2024-03-08T12:10:36.548Z,13.43
2024-03-08T12:13:12.655Z,13.51
2024-03-08T12:15:40.724Z,13.56
2024-03-08T12:18:08.706Z,13.59
2024-03-08T12:20:35.600Z,13.35
2024-03-08T12:23:03.600Z,13.13
2024-03-08T12:25:37.866Z,13.25
2024-03-08T12:28:14.638Z,13.16
2024-03-08T12:30:54.313Z,12.97
2024-03-08T12:33:21.481Z,12.81
2024-03-08T12:35:56.023Z,12.51
2024-03-08T12:38:27.129Z,12.65
2024-03-08T12:41:00.462Z,12.70
2024-03-08T12:43:27.498Z,12.49
2024-03-08T12:45:55.904Z,12.26
2024-03-08T12:48:22.649Z,12.35
2024-03-08T12:50:49.466Z,12.50
2024-03-08T12:53:16.424Z,12.70
2024-03-08T12:55:43.235Z,13.11
2024-03-08T12:58:10.804Z,13.18
2024-03-08T13:00:37.925Z,13.05
2024-03-08T13:03:05.052Z,13.09
2024-03-08T13:05:31.609Z,12.84
2024-03-08T13:07:58.778Z,12.48
2024-03-08T13:10:25.632Z,12.36
2024-03-08T13:12:54.809Z,12.87
2024-03-08T13:15:21.948Z,13.02
2024-03-08T13:17:50.035Z,12.91
2024-03-08T13:20:27.668Z,13.17
2024-03-08T13:23:00.502Z,13.54
2024-03-08T13:25:27.419Z,13.21
2024-03-08T13:27:57.238Z,13.01
2024-03-08T13:30:25.590Z,13.15
2024-03-08T13:32:56.054Z,12.98
2024-03-08T13:35:25.834Z,12.93
2024-03-08T13:37:52.984Z,13.09
2024-03-08T13:40:21.431Z,12.84
2024-03-08T13:42:50.366Z,12.57
2024-03-08T13:45:25.225Z,12.32
2024-03-08T13:47:55.779Z,12.22
2024-03-08T13:50:23.293Z,11.89
2024-03-08T13:52:56.197Z,12.25
2024-03-08T13:55:26.944Z,12.17
2024-03-08T13:57:54.318Z,12.38
2024-03-08T14:00:24.139Z,12.70
2024-03-08T14:02:50.896Z,12.41
2024-03-08T14:05:19.058Z,12.43
2024-03-08T14:07:51.016Z,12.54
2024-03-08T14:10:21.814Z,12.39
2024-03-08T14:12:51.668Z,12.36
2024-03-08T14:15:18.721Z,12.33
2024-03-08T14:17:47.440Z,12.28
2024-03-08T14:20:14.336Z,12.27
2024-03-08T14:22:41.067Z,12.23
2024-03-08T14:25:10.232Z,12.00
2024-03-08T14:27:36.946Z,12.06
2024-03-08T14:30:04.451Z,12.09
2024-03-08T14:32:31.126Z,11.91
2024-03-08T14:34:57.861Z,12.00
2024-03-08T14:37:29.369Z,11.96
2024-03-08T14:39:57.504Z,11.98
2024-03-08T14:42:24.341Z,12.12
2024-03-08T14:44:54.983Z,11.97
2024-03-08T14:47:23.527Z,11.81
2024-03-08T14:49:50.505Z,11.81
2024-03-08T14:52:29.568Z,11.88
2024-03-08T14:54:57.284Z,11.80
2024-03-08T14:57:24.059Z,11.57
2024-03-08T14:59:51.474Z,11.51
2024-03-08T15:02:20.531Z,11.65
2024-03-08T15:04:58.544Z,11.41
2024-03-08T15:07:32.141Z,11.42
2024-03-08T15:09:58.953Z,11.24
2024-03-08T15:12:27.327Z,11.13
2024-03-08T15:14:56.495Z,11.15
2024-03-08T15:17:24.097Z,10.96
2024-03-08T15:19:51.234Z,11.00
2024-03-08T15:22:19.103Z,10.92
2024-03-08T15:24:46.049Z,10.82
2024-03-08T15:27:13.178Z,10.70
2024-03-08T15:29:40.080Z,10.78
2024-03-08T15:32:07.956Z,10.80
2024-03-08T15:34:39.332Z,10.62
2024-03-08T15:37:06.332Z,10.54
2024-03-08T15:39:34.867Z,10.60
2024-03-08T15:42:01.937Z,10.41
2024-03-08T15:44:29.943Z,10.24
2024-03-08T15:46:56.967Z,10.29
2024-03-08T15:49:25.685Z,10.24
2024-03-08T15:51:52.442Z,10.19
2024-03-08T15:54:19.929Z,10.11
2024-03-08T15:56:46.741Z,10.20
2024-03-08T15:59:13.705Z,10.06
2024-03-08T16:01:40.859Z,9.80
2024-03-08T16:04:08.068Z,9.64
2024-03-08T16:06:37.621Z,9.73
2024-03-08T16:09:08.944Z,9.66
2024-03-08T16:11:39.240Z,9.52
2024-03-08T16:14:06.268Z,9.38
2024-03-08T16:16:33.313Z,9.16
2024-03-08T16:19:00.091Z,9.08
2024-03-08T16:21:28.233Z,9.15
2024-03-08T16:23:55.049Z,9.01
2024-03-08T16:26:24.267Z,8.91
2024-03-08T16:28:50.954Z,8.77
2024-03-08T16:31:17.663Z,8.66
2024-03-08T16:33:45.788Z,8.66
2024-03-08T16:36:14.921Z,8.54
2024-03-08T16:38:44.805Z,8.42
2024-03-08T16:41:13.440Z,8.33
2024-03-08T16:43:40.384Z,8.35
2024-03-08T16:46:07.809Z,8.17
2024-03-08T16:48:35.556Z,8.05
2024-03-08T16:51:02.435Z,7.80
2024-03-08T16:53:29.253Z,7.63
2024-03-08T16:55:58.669Z,7.54
2024-03-08T16:58:25.616Z,7.53
2024-03-08T17:00:52.456Z,7.41
2024-03-08T17:03:19.560Z,7.24
2024-03-08T17:05:47.170Z,7.18
2024-03-08T17:08:16.423Z,7.12
2024-03-08T17:10:44.619Z,6.88
2024-03-08T17:13:13.512Z,6.85
2024-03-08T17:15:40.682Z,6.83
2024-03-08T17:18:09.845Z,6.73
2024-03-08T17:20:38.290Z,6.69
2024-03-08T17:23:10.000Z,6.71
2024-03-08T17:25:39.097Z,6.71
2024-03-08T17:28:08.233Z,6.53
2024-03-08T17:30:39.446Z,6.47
2024-03-08T17:33:17.092Z,6.49
2024-03-08T17:35:45.913Z,6.33
2024-03-08T17:38:13.166Z,6.29
2024-03-08T17:40:42.614Z,6.20
2024-03-08T17:43:14.838Z,6.19
2024-03-08T17:45:46.473Z,6.08
2024-03-08T17:48:14.523Z,6.16
2024-03-08T17:50:42.764Z,6.15
2024-03-08T17:53:11.538Z,6.12
2024-03-08T17:55:41.959Z,6.13
2024-03-08T17:58:09.524Z,6.06
2024-03-08T18:00:36.885Z,6.09
2024-03-08T18:03:09.965Z,6.00
2024-03-08T18:05:38.278Z,6.11
2024-03-08T18:08:05.943Z,6.21
2024-03-08T18:10:35.425Z,6.34
2024-03-08T18:13:04.262Z,6.28
2024-03-08T18:15:34.986Z,6.24
2024-03-08T18:18:04.437Z,6.14
2024-03-08T18:20:33.574Z,6.14
2024-03-08T18:23:02.902Z,6.14
2024-03-08T18:25:33.802Z,6.07
2024-03-08T18:28:06.769Z,5.92
2024-03-08T18:30:34.201Z,5.80
2024-03-08T18:33:00.962Z,5.80
2024-03-08T18:35:27.689Z,5.76
2024-03-08T18:37:57.012Z,5.69
2024-03-08T18:40:24.837Z,5.63
2024-03-08T18:42:53.081Z,5.43
2024-03-08T18:45:22.942Z,5.12
2024-03-08T18:47:52.121Z,5.03
2024-03-08T18:50:22.365Z,4.97
2024-03-08T18:52:49.676Z,4.96
2024-03-08T18:55:22.558Z,4.97
2024-03-08T18:57:49.474Z,4.92
2024-03-08T19:00:24.799Z,4.85
2024-03-08T19:02:58.101Z,4.92
2024-03-08T19:05:28.966Z,4.78
2024-03-08T19:07:57.290Z,4.54
2024-03-08T19:10:26.399Z,4.43
2024-03-08T19:12:57.175Z,4.31
2024-03-08T19:15:24.888Z,3.92
2024-03-08T19:17:53.803Z,3.86
2024-03-08T19:20:25.625Z,3.95
2024-03-08T19:22:55.537Z,3.57
2024-03-08T19:25:26.166Z,2.98
2024-03-08T19:27:52.907Z,3.08
2024-03-08T19:30:22.204Z,3.25
2024-03-08T19:32:48.937Z,3.29
2024-03-08T19:35:19.671Z,3.21
2024-03-08T19:37:47.093Z,3.31
2024-03-08T19:40:23.879Z,3.12
2024-03-08T19:42:55.953Z,2.95
2024-03-08T19:45:27.358Z,2.91
2024-03-08T19:47:55.425Z,2.94
2024-03-08T19:50:22.582Z,3.01
2024-03-08T19:52:51.940Z,2.48
2024-03-08T19:55:21.405Z,2.49
2024-03-08T19:57:51.775Z,2.56
2024-03-08T20:00:27.080Z,2.67
2024-03-08T20:02:57.446Z,2.66
2024-03-08T20:05:26.011Z,2.71
2024-03-08T20:07:56.563Z,2.74
2024-03-08T20:10:25.205Z,2.74
2024-03-08T20:12:58.170Z,2.75
2024-03-08T20:15:26.471Z,2.67
2024-03-08T20:17:54.997Z,2.68
2024-03-08T20:20:23.341Z,2.66
2024-03-08T20:22:53.223Z,2.44
2024-03-08T20:25:22.670Z,2.48
2024-03-08T20:27:55.005Z,2.32
2024-03-08T20:30:28.089Z,1.60
2024-03-08T20:33:05.148Z,1.28
2024-03-08T20:35:36.569Z,1.38
2024-03-08T20:38:08.170Z,1.45
2024-03-08T20:40:46.464Z,1.48
2024-03-08T20:43:18.778Z,1.62
2024-03-08T20:45:45.851Z,1.74
2024-03-08T20:48:16.006Z,1.56
2024-03-08T20:50:43.710Z,1.53
2024-03-08T20:53:12.684Z,1.44
2024-03-08T20:55:49.923Z,1.32
2024-03-08T20:58:17.991Z,1.35
2024-03-08T21:00:55.145Z,1.04
2024-03-08T21:03:24.853Z,0.89
2024-03-08T21:05:52.395Z,1.00
2024-03-08T21:08:24.922Z,0.48
2024-03-08T21:10:55.227Z,0.40
2024-03-08T21:13:25.366Z,0.16
2024-03-08T21:15:56.008Z,0.27
2024-03-08T21:18:23.915Z,0.49
2024-03-08T21:20:50.841Z,0.64
2024-03-08T21:23:17.568Z,0.79
2024-03-08T21:25:44.834Z,0.91
2024-03-08T21:28:12.608Z,0.93
2024-03-08T21:30:40.809Z,0.95
2024-03-08T21:33:12.120Z,0.97
2024-03-08T21:35:40.596Z,0.34
2024-03-08T21:38:08.290Z,0.28
2024-03-08T21:40:37.278Z,0.33
2024-03-08T21:43:04.912Z,0.01
2024-03-08T21:45:32.798Z,0.17
2024-03-08T21:48:04.684Z,0.06
2024-03-08T21:50:34.586Z,-0.33
2024-03-08T21:53:02.533Z,-0.47
2024-03-08T21:55:31.380Z,-0.20
2024-03-08T21:58:01.233Z,0.01
2024-03-08T22:00:33.737Z,-0.22
2024-03-08T22:03:03.869Z,-0.03
2024-03-08T22:05:30.957Z,0.13
2024-03-08T22:07:58.457Z,0.24
2024-03-08T22:10:27.972Z,0.30
2024-03-08T22:12:56.778Z,0.29
2024-03-08T22:15:25.524Z,0.24
2024-03-08T22:17:57.752Z,0.13
2024-03-08T22:20:32.739Z,-0.51
2024-03-08T22:23:01.257Z,-0.34
2024-03-08T22:25:28.827Z,-0.42
2024-03-08T22:27:55.768Z,-0.30
2024-03-08T22:30:24.734Z,-0.29
2024-03-08T22:32:55.780Z,-0.25
2024-03-08T22:35:25.539Z,-0.28
2024-03-08T22:37:53.116Z,-0.28
2024-03-08T22:40:25.594Z,-0.32
2024-03-08T22:42:53.261Z,-0.39
2024-03-08T22:45:20.276Z,-0.69
2024-03-08T22:47:47.802Z,-0.65
2024-03-08T22:50:17.288Z,-0.80
2024-03-08T22:52:46.236Z,-0.83
2024-03-08T22:55:14.155Z,-0.76
2024-03-08T22:57:41.497Z,-0.86
2024-03-08T23:00:38.333Z,-0.67
2024-03-08T23:03:11.794Z,-0.45
2024-03-08T23:05:42.278Z,-0.40
2024-03-08T23:08:09.553Z,-0.86
2024-03-08T23:10:40.254Z,-0.85
2024-03-08T23:13:07.444Z,-0.75
2024-03-08T23:15:34.204Z,-0.58
2024-03-08T23:18:01.018Z,-0.67
2024-03-08T23:20:34.266Z,-0.59
2024-03-08T23:23:05.424Z,-0.44
2024-03-08T23:25:33.725Z,-0.43
2024-03-08T23:28:07.770Z,-0.38
2024-03-08T23:30:40.584Z,-0.33
2024-03-08T23:33:10.206Z,-0.25
2024-03-08T23:35:41.855Z,-0.23
2024-03-08T23:38:09.194Z,-0.25
2024-03-08T23:40:36.098Z,-0.38
2024-03-08T23:43:04.853Z,-0.35
2024-03-08T23:45:31.624Z,-0.61
2024-03-08T23:48:00.707Z,-1.00
2024-03-08T23:50:31.526Z,-0.89
2024-03-08T23:53:01.425Z,-0.78
2024-03-08T23:55:30.994Z,-0.62
2024-03-08T23:57:59.359Z,-0.51
